Time;durP1;ratioP1;P1;durP2;ratioP2;P2;SDS_P1;SDS_P2;PMS_P1;PMS_P2;Temp;Humidity;BMP_temperature;BMP_pressure;BME280_temperature;BME280_humidity;BME280_pressure;Samples;Min_cycle;Max_cycle;Signal;HPM_P1;HPM_P2
2021/12/29 00:02:05;;;;;;;19.83;11.95;;;;;;;;;;5074821;28;20395;-74
2021/12/29 00:04:31;;;;;;;21.60;13.82;;;;;;;;;;5074979;28;20475;-81
2021/12/29 00:06:58;;;;;;;18.55;12.93;;;;;;;;;;5075124;28;20527;-82
2021/12/29 00:09:27;;;;;;;16.55;10.98;;;;;;;;;;5074755;28;20027;-78
2021/12/29 00:11:53;;;;;;;21.05;13.48;;;;;;;;;;5074784;28;20100;-80
2021/12/29 00:14:20;;;;;;;20.80;12.40;;;;;;;;;;5074623;28;20025;-84
2021/12/29 00:16:46;;;;;;;17.27;12.60;;;;;;;;;;5073535;28;20427;-78
2021/12/29 00:19:12;;;;;;;18.05;12.52;;;;;;;;;;5074814;28;20031;-83
2021/12/29 00:21:41;;;;;;;20.33;12.80;;;;;;;;;;5074526;28;20136;-78
2021/12/29 00:24:07;;;;;;;15.00;10.85;;;;;;;;;;5074285;28;20066;-81
2021/12/29 00:26:37;;;;;;;17.67;13.30;;;;;;;;;;5074589;28;20025;-82
2021/12/29 00:29:03;;;;;;;18.35;13.38;;;;;;;;;;5073238;28;20601;-78
2021/12/29 00:31:30;;;;;;;19.88;12.80;;;;;;;;;;5074535;28;20460;-80
2021/12/29 00:33:57;;;;;;;17.13;12.07;;;;;;;;;;5074477;28;20025;-79
2021/12/29 00:36:23;;;;;;;17.05;12.90;;;;;;;;;;5074052;28;20032;-77
2021/12/29 00:38:49;;;;;;;15.35;11.05;;;;;;;;;;5074373;28;20108;-79
2021/12/29 00:41:17;;;;;;;16.10;10.95;;;;;;;;;;5074048;28;20039;-81
2021/12/29 00:43:44;;;;;;;16.38;12.05;;;;;;;;;;5074250;28;20040;-77
2021/12/29 00:46:13;;;;;;;14.95;10.85;;;;;;;;;;5074068;28;20042;-84
2021/12/29 00:48:44;;;;;;;22.50;14.00;;;;;;;;;;5073441;28;20054;-81
2021/12/29 00:51:11;;;;;;;15.18;11.70;;;;;;;;;;5073767;28;20021;-84
2021/12/29 00:53:37;;;;;;;18.38;12.75;;;;;;;;;;5074141;28;20060;-83
2021/12/29 00:56:04;;;;;;;17.38;13.25;;;;;;;;;;5072830;28;20021;-82
2021/12/29 00:58:30;;;;;;;18.98;13.45;;;;;;;;;;5073984;28;20050;-82
2021/12/29 01:00:56;;;;;;;16.00;11.13;;;;;;;;;;5073873;28;20033;-85
2021/12/29 01:03:25;;;;;;;16.10;11.30;;;;;;;;;;5073748;28;20025;-82
2021/12/29 01:05:52;;;;;;;14.93;11.15;;;;;;;;;;5073897;28;20036;-80
2021/12/29 01:08:21;;;;;;;16.30;12.13;;;;;;;;;;5073694;28;20032;-76
2021/12/29 01:10:48;;;;;;;16.73;10.90;;;;;;;;;;5073664;28;20107;-79
2021/12/29 01:13:19;;;;;;;14.20;10.40;;;;;;;;;;5073557;28;20146;-76
2021/12/29 01:16:15;;;;;;;14.68;11.32;;;;;;;;;;5073436;28;20028;-82
2021/12/29 01:18:43;;;;;;;17.23;12.43;;;;;;;;;;5073326;28;20029;-76
2021/12/29 01:21:10;;;;;;;16.00;12.43;;;;;;;;;;5073663;28;20039;-79
2021/12/29 01:23:36;;;;;;;18.67;12.95;;;;;;;;;;5072915;28;20032;-81
2021/12/29 01:26:02;;;;;;;18.90;12.73;;;;;;;;;;5073662;28;20029;-76
2021/12/29 01:28:29;;;;;;;17.38;12.48;;;;;;;;;;5073373;28;20020;-80
2021/12/29 01:31:02;;;;;;;16.90;13.15;;;;;;;;;;5073142;28;20098;-79
2021/12/29 01:33:28;;;;;;;20.85;14.02;;;;;;;;;;5073207;28;20025;-79
2021/12/29 01:35:54;;;;;;;17.45;11.63;;;;;;;;;;5073089;28;20036;-81
2021/12/29 01:38:23;;;;;;;18.90;12.00;;;;;;;;;;5071963;28;20399;-78
2021/12/29 01:40:49;;;;;;;19.42;12.45;;;;;;;;;;5072866;28;20041;-82
2021/12/29 01:43:16;;;;;;;22.38;13.73;;;;;;;;;;5073177;28;20490;-78
2021/12/29 01:45:42;;;;;;;19.38;12.77;;;;;;;;;;5071582;28;20029;-86
2021/12/29 01:48:08;;;;;;;21.17;13.15;;;;;;;;;;5073064;28;20028;-82
2021/12/29 01:50:35;;;;;;;18.88;12.63;;;;;;;;;;5072920;28;20028;-80
2021/12/29 01:53:08;;;;;;;20.52;13.00;;;;;;;;;;5073149;28;20020;-83
2021/12/29 01:55:34;;;;;;;23.90;15.63;;;;;;;;;;5072817;28;20483;-81
2021/12/29 01:58:01;;;;;;;20.10;13.73;;;;;;;;;;5072987;28;20028;-79
2021/12/29 02:00:29;;;;;;;19.17;14.07;;;;;;;;;;5072725;28;20033;-80
2021/12/29 02:02:55;;;;;;;21.30;14.13;;;;;;;;;;5072566;28;20025;-79
2021/12/29 02:05:24;;;;;;;23.42;15.40;;;;;;;;;;5072862;28;20459;-82
2021/12/29 02:07:50;;;;;;;23.02;15.05;;;;;;;;;;5072733;28;20160;-79
2021/12/29 02:10:18;;;;;;;23.77;15.70;;;;;;;;;;5071580;28;20035;-78
2021/12/29 02:12:44;;;;;;;21.02;14.65;;;;;;;;;;5072409;28;20021;-82
2021/12/29 02:15:11;;;;;;;23.48;16.20;;;;;;;;;;5071355;28;20395;-76
2021/12/29 02:17:38;;;;;;;24.20;16.05;;;;;;;;;;5072325;28;20078;-75
2021/12/29 02:20:05;;;;;;;23.55;15.43;;;;;;;;;;5072513;28;20479;-79
2021/12/29 02:22:42;;;;;;;21.10;16.10;;;;;;;;;;5072471;28;20025;-82
2021/12/29 02:27:47;;;;;;;20.67;12.93;;;;;;;;;;5072438;28;20502;-83
2021/12/29 02:30:14;;;;;;;19.67;13.70;;;;;;;;;;5072355;28;20058;-79
2021/12/29 02:32:40;;;;;;;21.50;14.30;;;;;;;;;;5071170;28;20028;-84
2021/12/29 02:35:06;;;;;;;21.58;13.80;;;;;;;;;;5072447;28;20407;-75
2021/12/29 02:37:33;;;;;;;24.92;15.30;;;;;;;;;;5072215;28;20036;-82
2021/12/29 02:39:59;;;;;;;21.10;13.70;;;;;;;;;;5072357;28;20475;-82
2021/12/29 02:42:26;;;;;;;19.33;12.80;;;;;;;;;;5072168;28;20064;-78
2021/12/29 02:44:53;;;;;;;20.02;12.57;;;;;;;;;;5072260;28;20024;-81
2021/12/29 02:47:20;;;;;;;21.23;13.20;;;;;;;;;;5072158;28;20388;-81
2021/12/29 02:49:46;;;;;;;22.10;14.63;;;;;;;;;;5070975;28;20059;-78
2021/12/29 02:52:15;;;;;;;23.77;14.88;;;;;;;;;;5072247;28;20497;-78
2021/12/29 02:54:42;;;;;;;26.23;16.30;;;;;;;;;;5072186;28;20029;-81
2021/12/29 02:57:08;;;;;;;17.55;12.00;;;;;;;;;;5072185;28;20487;-81
2021/12/29 02:59:34;;;;;;;15.50;11.45;;;;;;;;;;5070669;28;20036;-79
2021/12/29 03:02:00;;;;;;;17.90;11.75;;;;;;;;;;5070825;28;20040;-78
2021/12/29 03:04:26;;;;;;;15.73;11.27;;;;;;;;;;5071839;28;20082;-82
2021/12/29 03:06:52;;;;;;;13.52;10.13;;;;;;;;;;5070845;28;20031;-77
2021/12/29 03:09:19;;;;;;;13.00;11.10;;;;;;;;;;5071965;28;20060;-81
2021/12/29 03:11:48;;;;;;;13.77;10.55;;;;;;;;;;5074377;28;20025;-78
2021/12/29 03:14:14;;;;;;;13.43;9.43;;;;;;;;;;5074789;28;20484;-80
2021/12/29 03:16:41;;;;;;;14.98;11.15;;;;;;;;;;5075823;28;20479;-82
2021/12/29 03:19:07;;;;;;;14.45;10.63;;;;;;;;;;5075880;28;20450;-77
2021/12/29 03:21:35;;;;;;;15.50;11.82;;;;;;;;;;5075683;28;20407;-82
2021/12/29 03:24:01;;;;;;;17.13;12.23;;;;;;;;;;5075757;28;20095;-81
2021/12/29 03:26:28;;;;;;;15.90;11.55;;;;;;;;;;5075466;28;20025;-77
2021/12/29 03:28:54;;;;;;;9.30;7.35;;;;;;;;;;5074527;28;20078;-82
2021/12/29 03:31:21;;;;;;;9.13;7.25;;;;;;;;;;5075605;28;20467;-82
2021/12/29 03:33:48;;;;;;;11.02;7.75;;;;;;;;;;5074167;28;20024;-77
2021/12/29 03:36:15;;;;;;;9.43;7.60;;;;;;;;;;5075692;28;20032;-78
2021/12/29 03:38:41;;;;;;;8.43;6.65;;;;;;;;;;5075232;28;20077;-81
2021/12/29 03:41:09;;;;;;;7.65;6.82;;;;;;;;;;5075422;28;20495;-83
2021/12/29 03:43:35;;;;;;;8.27;6.82;;;;;;;;;;5075200;28;20086;-84
2021/12/29 03:46:05;;;;;;;10.10;7.47;;;;;;;;;;5075344;28;20094;-79
2021/12/29 03:48:31;;;;;;;13.02;8.70;;;;;;;;;;5075390;28;20060;-79
2021/12/29 03:50:58;;;;;;;11.57;8.60;;;;;;;;;;5075364;28;20440;-80
2021/12/29 03:53:25;;;;;;;10.27;8.60;;;;;;;;;;5075123;28;20056;-78
2021/12/29 03:55:51;;;;;;;11.57;9.13;;;;;;;;;;5075249;28;20032;-79
2021/12/29 03:58:18;;;;;;;13.10;10.30;;;;;;;;;;5075350;28;20029;-78
2021/12/29 04:00:44;;;;;;;12.32;9.68;;;;;;;;;;5074857;28;20037;-77
2021/12/29 04:03:10;;;;;;;13.75;10.88;;;;;;;;;;5073806;28;20029;-82
2021/12/29 04:05:38;;;;;;;18.80;12.88;;;;;;;;;;5075008;28;20052;-77
2021/12/29 04:08:05;;;;;;;16.33;11.95;;;;;;;;;;5075018;28;20041;-79
2021/12/29 04:10:31;;;;;;;16.00;11.95;;;;;;;;;;5074897;28;20024;-80
2021/12/29 04:12:58;;;;;;;18.05;12.50;;;;;;;;;;5074860;28;20074;-82
2021/12/29 04:15:27;;;;;;;19.15;12.02;;;;;;;;;;5074896;28;20495;-78
2021/12/29 04:18:02;;;;;;;14.50;11.10;;;;;;;;;;5074816;28;20017;-78
2021/12/29 04:23:15;;;;;;;18.25;13.57;;;;;;;;;;5073663;28;20047;-84
2021/12/29 04:25:45;;;;;;;24.23;17.10;;;;;;;;;;5073361;28;20874;-81
2021/12/29 04:28:13;;;;;;;21.58;16.33;;;;;;;;;;5074438;28;20052;-82
2021/12/29 04:30:40;;;;;;;18.38;13.63;;;;;;;;;;5074756;28;20028;-82
2021/12/29 04:33:06;;;;;;;21.83;14.75;;;;;;;;;;5074497;28;20060;-84
2021/12/29 04:35:32;;;;;;;20.75;15.23;;;;;;;;;;5074561;28;20032;-75
2021/12/29 04:37:59;;;;;;;17.48;12.00;;;;;;;;;;5074449;28;20099;-79
2021/12/29 04:40:28;;;;;;;17.48;13.18;;;;;;;;;;5074213;28;20111;-81
2021/12/29 04:42:54;;;;;;;18.65;14.05;;;;;;;;;;5074350;28;20029;-76
2021/12/29 04:45:23;;;;;;;18.02;14.18;;;;;;;;;;5074143;28;20028;-80
2021/12/29 04:47:50;;;;;;;17.52;12.43;;;;;;;;;;5074347;28;20032;-80
2021/12/29 04:50:28;;;;;;;15.98;12.27;;;;;;;;;;5073809;28;20020;-83
2021/12/29 04:52:57;;;;;;;15.02;10.65;;;;;;;;;;5073931;28;20025;-78
2021/12/29 04:55:23;;;;;;;17.55;12.20;;;;;;;;;;5074143;28;20481;-79
2021/12/29 04:57:49;;;;;;;17.77;12.93;;;;;;;;;;5074033;28;20498;-83
2021/12/29 05:00:16;;;;;;;18.98;12.57;;;;;;;;;;5074036;28;20082;-76
2021/12/29 05:02:42;;;;;;;20.20;13.48;;;;;;;;;;5076233;28;20024;-80
2021/12/29 05:05:20;;;;;;;21.58;13.55;;;;;;;;;;5092614;28;20024;-80
2021/12/29 05:10:36;;;;;;;22.10;14.57;;;;;;;;;;5094006;28;20043;-82
2021/12/29 05:13:03;;;;;;;22.27;14.45;;;;;;;;;;5093835;28;20028;-84
2021/12/29 05:15:29;;;;;;;23.92;15.10;;;;;;;;;;5093878;28;20404;-79
2021/12/29 05:17:58;;;;;;;26.30;15.23;;;;;;;;;;5092534;28;20034;-82
2021/12/29 05:20:24;;;;;;;28.02;15.60;;;;;;;;;;5093585;28;20032;-80
2021/12/29 05:22:50;;;;;;;28.38;15.10;;;;;;;;;;5093610;28;20089;-80
2021/12/29 05:25:17;;;;;;;28.50;16.25;;;;;;;;;;5093477;28;20109;-80
2021/12/29 05:27:43;;;;;;;29.92;20.48;;;;;;;;;;5093559;28;20036;-80
2021/12/29 05:30:11;;;;;;;80.35;52.95;;;;;;;;;;5093556;28;20032;-84
2021/12/29 05:32:38;;;;;;;26.67;17.45;;;;;;;;;;5093331;28;20024;-77
2021/12/29 05:35:07;;;;;;;57.90;41.67;;;;;;;;;;5093220;28;20028;-77
2021/12/29 05:37:33;;;;;;;102.38;73.18;;;;;;;;;;5093247;28;20506;-83
2021/12/29 05:39:59;;;;;;;63.95;41.08;;;;;;;;;;5093271;28;20035;-79
2021/12/29 05:42:25;;;;;;;21.95;15.88;;;;;;;;;;5093422;28;20111;-78
2021/12/29 05:44:51;;;;;;;19.23;12.57;;;;;;;;;;5093266;28;20035;-81
2021/12/29 05:47:20;;;;;;;16.83;11.45;;;;;;;;;;5093403;28;20024;-79
2021/12/29 05:49:46;;;;;;;15.25;11.30;;;;;;;;;;5093047;28;20446;-80
2021/12/29 05:52:15;;;;;;;16.60;11.73;;;;;;;;;;5093165;28;20532;-75
2021/12/29 05:54:44;;;;;;;15.95;12.55;;;;;;;;;;5091863;28;20444;-80
2021/12/29 05:57:10;;;;;;;19.77;12.93;;;;;;;;;;5093116;28;20486;-78
2021/12/29 05:59:36;;;;;;;20.52;13.27;;;;;;;;;;5092722;28;20046;-81
2021/12/29 06:02:05;;;;;;;29.65;16.30;;;;;;;;;;5093097;28;20103;-79
2021/12/29 06:04:31;;;;;;;33.60;18.70;;;;;;;;;;5092964;28;20027;-80
2021/12/29 06:06:58;;;;;;;35.92;23.08;;;;;;;;;;5092921;28;20035;-79
2021/12/29 06:09:24;;;;;;;31.05;19.25;;;;;;;;;;5093036;28;20107;-78
2021/12/29 06:11:50;;;;;;;39.33;21.85;;;;;;;;;;5092720;28;20027;-76
2021/12/29 06:14:18;;;;;;;34.25;20.63;;;;;;;;;;5092774;28;20032;-77
2021/12/29 06:16:45;;;;;;;32.85;21.13;;;;;;;;;;5092463;28;20032;-78
2021/12/29 06:19:11;;;;;;;35.10;23.58;;;;;;;;;;5092314;28;20031;-77
2021/12/29 06:21:37;;;;;;;40.88;26.08;;;;;;;;;;5091246;28;20178;-79
2021/12/29 06:24:03;;;;;;;38.90;26.27;;;;;;;;;;5092336;28;20063;-79
2021/12/29 06:26:32;;;;;;;38.40;25.60;;;;;;;;;;5091588;28;20028;-77
2021/12/29 06:28:59;;;;;;;28.17;19.08;;;;;;;;;;5072113;28;20480;-75
2021/12/29 06:34:09;;;;;;;;;;;;;;;;;;5061137;28;20048;-75
2021/12/29 06:36:36;;;;;;;26.40;16.15;;;;;;;;;;5064681;28;20303;-80
2021/12/29 06:39:02;;;;;;;30.40;18.65;;;;;;;;;;5051200;28;20087;-77
2021/12/29 06:41:28;;;;;;;29.33;17.92;;;;;;;;;;5061746;28;20488;-76
2021/12/29 06:43:54;;;;;;;29.83;16.80;;;;;;;;;;5061879;28;20052;-78
2021/12/29 06:46:20;;;;;;;29.50;17.73;;;;;;;;;;5066450;28;20107;-80
2021/12/29 06:48:47;;;;;;;34.13;17.63;;;;;;;;;;5064885;28;20021;-80
2021/12/29 06:51:13;;;;;;;30.00;16.13;;;;;;;;;;5068419;28;20025;-75
2021/12/29 06:53:44;;;;;;;28.13;16.33;;;;;;;;;;5060497;28;20025;-77
2021/12/29 06:56:11;;;;;;;50.00;28.92;;;;;;;;;;5065073;28;20028;-78
2021/12/29 06:58:37;;;;;;;35.10;19.73;;;;;;;;;;5065745;28;20044;-77
2021/12/29 07:01:06;;;;;;;32.90;21.98;;;;;;;;;;5068758;28;20476;-78
2021/12/29 07:03:32;;;;;;;105.88;65.68;;;;;;;;;;5064620;28;20021;-76
2021/12/29 07:06:00;;;;;;;47.28;31.80;;;;;;;;;;5067184;28;20025;-76
2021/12/29 07:08:28;;;;;;;51.13;34.90;;;;;;;;;;5067782;28;20036;-78
2021/12/29 07:10:54;;;;;;;41.97;28.60;;;;;;;;;;5066495;28;20032;-75
2021/12/29 07:13:21;;;;;;;36.72;24.17;;;;;;;;;;5063806;28;20025;-82
2021/12/29 07:15:47;;;;;;;31.52;22.20;;;;;;;;;;5051220;28;20396;-80
2021/12/29 07:18:14;;;;;;;30.25;21.38;;;;;;;;;;5053851;28;20029;-76
2021/12/29 07:20:44;;;;;;;77.47;45.38;;;;;;;;;;5066672;28;20086;-80
2021/12/29 07:23:10;;;;;;;124.75;70.32;;;;;;;;;;5045457;28;20025;-77
2021/12/29 07:25:36;;;;;;;108.07;62.67;;;;;;;;;;5062111;28;20432;-80
2021/12/29 07:28:03;;;;;;;53.95;33.05;;;;;;;;;;5060984;28;20056;-78
2021/12/29 07:30:29;;;;;;;45.65;27.42;;;;;;;;;;5069680;28;20025;-79
2021/12/29 07:32:55;;;;;;;45.25;26.73;;;;;;;;;;5068034;28;20025;-76
2021/12/29 07:35:25;;;;;;;42.42;28.65;;;;;;;;;;5064525;28;20020;-78
2021/12/29 07:37:51;;;;;;;39.70;23.95;;;;;;;;;;5054684;28;20060;-76
2021/12/29 07:40:17;;;;;;;42.42;27.77;;;;;;;;;;5067629;28;20039;-77
2021/12/29 07:42:44;;;;;;;82.28;54.83;;;;;;;;;;5056774;28;20043;-79
2021/12/29 07:45:11;;;;;;;57.75;35.90;;;;;;;;;;5064486;28;20468;-78
2021/12/29 07:47:47;;;;;;;47.63;30.90;;;;;;;;;;5061499;28;20033;-79
2021/12/29 07:50:13;;;;;;;50.13;34.03;;;;;;;;;;5065776;28;20024;-74
2021/12/29 07:52:39;;;;;;;59.70;35.78;;;;;;;;;;5065347;28;20455;-77
2021/12/29 07:55:06;;;;;;;52.28;30.25;;;;;;;;;;5065168;28;20421;-80
2021/12/29 07:57:32;;;;;;;54.03;27.42;;;;;;;;;;5069320;28;20016;-77
2021/12/29 07:59:58;;;;;;;30.52;16.83;;;;;;;;;;5071096;28;20028;-79
2021/12/29 08:02:27;;;;;;;27.55;17.95;;;;;;;;;;5066703;28;20027;-79
2021/12/29 08:04:58;;;;;;;36.17;22.10;;;;;;;;;;5062256;28;20464;-71
2021/12/29 08:07:27;;;;;;;30.23;19.25;;;;;;;;;;5052827;28;20032;-76
2021/12/29 08:09:53;;;;;;;23.00;14.23;;;;;;;;;;5070278;28;20111;-76
2021/12/29 08:12:19;;;;;;;33.53;21.05;;;;;;;;;;5061937;28;20040;-79
2021/12/29 08:14:47;;;;;;;29.00;17.13;;;;;;;;;;5052959;28;20025;-79
2021/12/29 08:17:13;;;;;;;31.42;19.38;;;;;;;;;;5054002;28;20078;-78
2021/12/29 08:19:40;;;;;;;34.08;19.77;;;;;;;;;;5070695;28;20021;-78
2021/12/29 08:22:09;;;;;;;31.17;19.23;;;;;;;;;;5070966;28;20036;-77
2021/12/29 08:24:35;;;;;;;25.17;12.90;;;;;;;;;;5069600;28;20377;-77
2021/12/29 08:27:01;;;;;;;22.63;14.75;;;;;;;;;;5070756;28;20029;-75
2021/12/29 08:29:28;;;;;;;33.38;19.88;;;;;;;;;;5072072;28;20093;-77
2021/12/29 08:31:57;;;;;;;34.30;21.70;;;;;;;;;;5073025;28;20146;-77
2021/12/29 08:34:24;;;;;;;55.00;36.72;;;;;;;;;;5073234;28;20098;-77
2021/12/29 08:36:50;;;;;;;38.28;21.67;;;;;;;;;;5070276;28;20025;-75
2021/12/29 08:39:18;;;;;;;44.92;20.90;;;;;;;;;;5064301;28;20058;-77
2021/12/29 08:41:45;;;;;;;43.20;21.33;;;;;;;;;;5069369;28;20037;-76
2021/12/29 08:44:11;;;;;;;43.53;21.85;;;;;;;;;;5067601;28;20029;-76
2021/12/29 08:46:37;;;;;;;61.75;33.00;;;;;;;;;;5070364;28;20030;-75
2021/12/29 08:49:05;;;;;;;61.03;32.17;;;;;;;;;;5070782;28;20033;-78
2021/12/29 08:51:35;;;;;;;42.50;22.90;;;;;;;;;;5071615;28;20133;-76
2021/12/29 08:54:01;;;;;;;36.42;21.60;;;;;;;;;;5063971;28;20028;-77
2021/12/29 08:56:29;;;;;;;40.45;25.60;;;;;;;;;;5067043;28;20033;-77
2021/12/29 08:58:55;;;;;;;28.35;17.75;;;;;;;;;;5071306;28;20021;-77
2021/12/29 09:01:22;;;;;;;31.17;17.67;;;;;;;;;;5058694;28;20028;-75
2021/12/29 09:03:49;;;;;;;30.05;19.83;;;;;;;;;;5069880;28;20024;-76
2021/12/29 09:06:18;;;;;;;25.88;16.55;;;;;;;;;;5069822;28;20036;-78
2021/12/29 09:08:45;;;;;;;27.00;16.85;;;;;;;;;;5064971;28;20432;-79
2021/12/29 09:11:12;;;;;;;23.48;16.17;;;;;;;;;;5071125;28;20103;-77
2021/12/29 09:13:38;;;;;;;23.60;16.40;;;;;;;;;;5069123;28;20025;-78
2021/12/29 09:16:05;;;;;;;22.83;14.07;;;;;;;;;;5069470;28;20085;-80
2021/12/29 09:18:33;;;;;;;21.67;15.65;;;;;;;;;;5071882;28;20039;-74
2021/12/29 09:21:06;;;;;;;29.00;20.05;;;;;;;;;;5071313;28;20496;-75
2021/12/29 09:23:32;;;;;;;24.58;15.75;;;;;;;;;;5069511;28;20032;-78
2021/12/29 09:25:58;;;;;;;27.10;19.85;;;;;;;;;;5069367;28;20111;-75
2021/12/29 09:28:28;;;;;;;24.92;17.10;;;;;;;;;;5070989;28;20024;-79
2021/12/29 09:30:55;;;;;;;38.15;25.90;;;;;;;;;;5068103;28;20072;-75
2021/12/29 09:33:23;;;;;;;21.27;13.10;;;;;;;;;;5067761;28;20076;-76
2021/12/29 09:35:57;;;;;;;18.65;12.68;;;;;;;;;;5068904;28;20077;-77
2021/12/29 09:38:25;;;;;;;22.08;14.55;;;;;;;;;;5064009;28;20045;-78
2021/12/29 09:40:51;;;;;;;26.60;16.35;;;;;;;;;;5068640;28;20075;-73
2021/12/29 09:43:18;;;;;;;25.67;16.70;;;;;;;;;;5069035;28;20036;-73
2021/12/29 09:45:45;;;;;;;27.80;17.67;;;;;;;;;;5053947;28;20055;-75
2021/12/29 09:48:12;;;;;;;24.77;17.20;;;;;;;;;;5069039;28;20036;-75
2021/12/29 09:50:38;;;;;;;22.77;15.35;;;;;;;;;;5069295;28;20089;-76
2021/12/29 09:53:05;;;;;;;27.38;17.42;;;;;;;;;;5068271;28;20118;-75
2021/12/29 09:55:32;;;;;;;25.00;16.65;;;;;;;;;;5067365;28;20123;-77
2021/12/29 09:57:59;;;;;;;25.98;18.08;;;;;;;;;;5068772;28;20086;-75
2021/12/29 10:00:28;;;;;;;23.05;16.08;;;;;;;;;;5065063;28;20033;-76
2021/12/29 10:02:55;;;;;;;20.08;12.63;;;;;;;;;;5052337;28;20407;-76
2021/12/29 10:05:24;;;;;;;21.33;13.18;;;;;;;;;;5066637;28;20032;-77
2021/12/29 10:08:12;;;;;;;19.08;13.98;;;;;;;;;;5065815;28;20016;-76
2021/12/29 10:10:40;;;;;;;17.35;13.48;;;;;;;;;;5051952;28;20017;-75
2021/12/29 10:13:07;;;;;;;18.08;13.02;;;;;;;;;;5063381;28;20039;-75
2021/12/29 10:15:45;;;;;;;15.20;10.45;;;;;;;;;;5069078;28;20024;-77
2021/12/29 10:18:13;;;;;;;19.48;11.43;;;;;;;;;;5068693;28;20180;-76
2021/12/29 10:20:57;;;;;;;16.33;11.45;;;;;;;;;;5068964;28;20031;-78
2021/12/29 10:23:25;;;;;;;15.98;11.38;;;;;;;;;;5066240;28;20028;-77
2021/12/29 10:25:56;;;;;;;14.23;11.32;;;;;;;;;;5065985;28;20094;-74
2021/12/29 10:28:27;;;;;;;15.30;10.43;;;;;;;;;;5067564;28;20123;-76
2021/12/29 10:31:01;;;;;;;15.18;11.13;;;;;;;;;;5069579;28;20479;-78
2021/12/29 10:33:46;;;;;;;11.57;8.95;;;;;;;;;;5067741;28;20468;-76
2021/12/29 10:36:34;;;;;;;13.25;10.35;;;;;;;;;;5066009;28;20033;-75
2021/12/29 10:39:05;;;;;;;14.65;10.25;;;;;;;;;;5053860;28;20112;-76
2021/12/29 10:41:33;;;;;;;16.02;11.45;;;;;;;;;;5053118;28;20033;-77
2021/12/29 10:44:04;;;;;;;19.95;15.05;;;;;;;;;;5067960;28;20037;-76
2021/12/29 10:46:33;;;;;;;14.75;10.32;;;;;;;;;;5067344;28;20036;-76
2021/12/29 10:49:00;;;;;;;16.75;12.00;;;;;;;;;;5067769;28;20499;-77
2021/12/29 10:51:47;;;;;;;17.02;11.80;;;;;;;;;;5066841;28;20054;-75
2021/12/29 10:54:15;;;;;;;36.28;28.08;;;;;;;;;;5066833;28;20033;-77
2021/12/29 10:56:44;;;;;;;17.02;12.98;;;;;;;;;;5063246;28;20104;-79
2021/12/29 10:59:29;;;;;;;26.50;19.67;;;;;;;;;;5055793;28;20078;-79
2021/12/29 11:01:55;;;;;;;20.10;16.42;;;;;;;;;;5067386;28;20033;-77
2021/12/29 11:04:22;;;;;;;22.85;17.63;;;;;;;;;;5065828;28;20025;-79
2021/12/29 11:06:49;;;;;;;16.80;12.95;;;;;;;;;;5068641;28;20384;-75
2021/12/29 11:09:23;;;;;;;23.25;17.48;;;;;;;;;;5067440;28;20674;-79
2021/12/29 11:11:49;;;;;;;22.35;16.67;;;;;;;;;;5069922;28;20479;-74
2021/12/29 11:14:21;;;;;;;23.50;19.17;;;;;;;;;;5067598;28;20056;-78
2021/12/29 11:16:48;;;;;;;24.00;19.35;;;;;;;;;;5065949;28;20058;-78
2021/12/29 11:19:14;;;;;;;56.30;33.38;;;;;;;;;;5068623;28;20031;-75
2021/12/29 11:21:42;;;;;;;20.45;15.65;;;;;;;;;;5067122;28;20494;-79
2021/12/29 11:24:23;;;;;;;16.08;12.13;;;;;;;;;;5066224;28;20522;-75
2021/12/29 11:26:49;;;;;;;15.93;12.50;;;;;;;;;;5066001;28;20493;-77
2021/12/29 11:29:17;;;;;;;22.17;16.05;;;;;;;;;;5068255;28;20021;-77
2021/12/29 11:31:45;;;;;;;21.42;15.02;;;;;;;;;;5069459;28;20032;-78
2021/12/29 11:34:15;;;;;;;22.38;17.15;;;;;;;;;;5072647;28;20026;-79
2021/12/29 11:36:44;;;;;;;24.90;17.10;;;;;;;;;;5069106;28;20063;-78
2021/12/29 11:39:10;;;;;;;29.95;22.92;;;;;;;;;;5054824;28;20116;-74
2021/12/29 11:41:36;;;;;;;20.73;15.85;;;;;;;;;;5059728;28;20428;-78
2021/12/29 11:44:03;;;;;;;19.52;15.40;;;;;;;;;;5071632;28;20056;-77
2021/12/29 11:46:29;;;;;;;22.73;17.58;;;;;;;;;;5070555;28;20024;-77
2021/12/29 11:48:55;;;;;;;26.67;19.58;;;;;;;;;;5054136;28;20480;-75
2021/12/29 11:51:30;;;;;;;21.10;16.33;;;;;;;;;;5063198;28;20028;-78
2021/12/29 11:54:00;;;;;;;22.75;16.55;;;;;;;;;;5050013;28;20040;-77
2021/12/29 11:56:26;;;;;;;19.90;14.95;;;;;;;;;;5072782;28;20032;-79
2021/12/29 11:58:52;;;;;;;71.25;52.97;;;;;;;;;;5058638;28;20029;-79
2021/12/29 12:01:20;;;;;;;54.38;37.72;;;;;;;;;;5070286;28;20032;-79
2021/12/29 12:04:05;;;;;;;39.47;27.90;;;;;;;;;;5055696;28;20033;-74
2021/12/29 12:06:31;;;;;;;;;;;;;;;;;;5068823;28;20487;-77
2021/12/29 12:09:02;;;;;;;15.82;11.77;;;;;;;;;;5068853;28;19912;-76
2021/12/29 12:11:28;;;;;;;23.90;16.00;;;;;;;;;;5057192;28;20388;-74
2021/12/29 12:13:55;;;;;;;21.13;16.52;;;;;;;;;;5052495;28;20088;-77
2021/12/29 12:16:21;;;;;;;12.15;9.05;;;;;;;;;;5054187;28;20484;-75
2021/12/29 12:18:52;;;;;;;11.15;7.78;;;;;;;;;;5070869;28;20130;-77
2021/12/29 12:21:23;;;;;;;12.65;9.13;;;;;;;;;;5071171;28;20044;-80
2021/12/29 12:23:50;;;;;;;26.10;21.10;;;;;;;;;;5070765;28;20048;-77
2021/12/29 12:26:20;;;;;;;26.23;20.65;;;;;;;;;;5072018;28;20037;-78
2021/12/29 12:28:48;;;;;;;11.63;9.05;;;;;;;;;;5069431;28;20043;-77
2021/12/29 12:31:40;;;;;;;12.93;10.10;;;;;;;;;;5072155;28;20035;-79
2021/12/29 12:34:09;;;;;;;18.17;13.57;;;;;;;;;;5069477;28;20036;-76
2021/12/29 12:36:35;;;;;;;14.15;11.65;;;;;;;;;;5071867;28;20064;-76
2021/12/29 12:39:14;;;;;;;29.48;23.50;;;;;;;;;;5055225;28;20539;-73
2021/12/29 12:41:42;;;;;;;18.30;15.82;;;;;;;;;;5062884;28;20032;-76
2021/12/29 12:44:08;;;;;;;15.10;11.80;;;;;;;;;;5064028;28;20450;-75
2021/12/29 12:46:34;;;;;;;14.43;11.20;;;;;;;;;;5070564;28;20379;-82
2021/12/29 12:49:11;;;;;;;18.17;13.13;;;;;;;;;;5069388;28;20108;-80
2021/12/29 12:51:37;;;;;;;15.73;12.60;;;;;;;;;;5065810;28;20527;-76
2021/12/29 12:54:16;;;;;;;16.55;11.45;;;;;;;;;;5071661;28;20388;-74
2021/12/29 12:56:45;;;;;;;13.02;9.07;;;;;;;;;;5070583;28;20056;-76
2021/12/29 12:59:12;;;;;;;11.90;9.50;;;;;;;;;;5054008;28;20457;-76
2021/12/29 13:01:42;;;;;;;12.65;9.73;;;;;;;;;;5063340;28;20462;-73
2021/12/29 13:04:11;;;;;;;24.13;17.02;;;;;;;;;;5062084;28;20050;-76
2021/12/29 13:06:38;;;;;;;16.23;12.23;;;;;;;;;;5057857;28;20113;-76
2021/12/29 13:09:06;;;;;;;11.68;8.93;;;;;;;;;;5053990;28;20028;-79
2021/12/29 13:11:33;;;;;;;15.65;11.45;;;;;;;;;;5060177;28;20029;-77
2021/12/29 13:14:01;;;;;;;14.43;9.15;;;;;;;;;;5064281;28;20104;-75
2021/12/29 13:16:28;;;;;;;15.40;11.75;;;;;;;;;;5053214;28;20066;-78
2021/12/29 13:18:54;;;;;;;12.60;9.77;;;;;;;;;;5053063;28;20446;-77
2021/12/29 13:21:25;;;;;;;19.77;15.38;;;;;;;;;;5053595;28;20090;-75
2021/12/29 13:23:52;;;;;;;15.30;10.80;;;;;;;;;;5053333;28;20095;-79
2021/12/29 13:26:18;;;;;;;20.85;14.65;;;;;;;;;;5053404;28;20028;-80
2021/12/29 13:28:44;;;;;;;15.75;11.77;;;;;;;;;;5053532;28;20548;-81
2021/12/29 13:31:14;;;;;;;19.42;13.02;;;;;;;;;;5053493;28;20036;-76
2021/12/29 13:33:44;;;;;;;11.95;8.77;;;;;;;;;;5053300;28;20033;-78
2021/12/29 13:36:11;;;;;;;11.82;8.63;;;;;;;;;;5059121;28;20025;-78
2021/12/29 13:38:38;;;;;;;19.48;15.05;;;;;;;;;;5058368;28;20483;-78
2021/12/29 13:41:05;;;;;;;24.27;17.63;;;;;;;;;;5069143;28;20036;-80
2021/12/29 13:43:50;;;;;;;17.38;12.77;;;;;;;;;;5072063;28;20063;-76
2021/12/29 13:46:18;;;;;;;24.80;18.48;;;;;;;;;;5072885;28;20025;-80
2021/12/29 13:48:46;;;;;;;26.67;18.00;;;;;;;;;;5072615;28;20028;-80
2021/12/29 13:51:14;;;;;;;25.98;17.77;;;;;;;;;;5073164;28;20060;-76
2021/12/29 13:53:49;;;;;;;25.15;16.02;;;;;;;;;;5066476;28;20048;-75
2021/12/29 13:56:18;;;;;;;18.80;13.02;;;;;;;;;;5062862;28;20020;-78
2021/12/29 13:58:44;;;;;;;20.13;14.20;;;;;;;;;;5072186;28;20112;-77
2021/12/29 14:01:10;;;;;;;19.05;12.90;;;;;;;;;;5073336;28;20064;-74
2021/12/29 14:03:37;;;;;;;24.45;15.95;;;;;;;;;;5073676;28;20040;-80
2021/12/29 14:06:05;;;;;;;29.70;18.50;;;;;;;;;;5072810;28;20068;-75
2021/12/29 14:08:32;;;;;;;32.08;22.63;;;;;;;;;;5073147;28;20086;-76
2021/12/29 14:11:00;;;;;;;28.83;20.65;;;;;;;;;;5073043;28;20537;-76
2021/12/29 14:13:33;;;;;;;24.90;18.33;;;;;;;;;;5072709;28;20091;-76
2021/12/29 14:16:08;;;;;;;24.73;19.23;;;;;;;;;;5073088;28;20043;-74
2021/12/29 14:18:41;;;;;;;24.17;17.92;;;;;;;;;;5073117;28;20016;-76
2021/12/29 14:21:18;;;;;;;24.17;17.83;;;;;;;;;;5072835;28;20047;-75
2021/12/29 14:23:53;;;;;;;28.23;19.77;;;;;;;;;;5073185;28;20090;-75
2021/12/29 14:26:19;;;;;;;50.92;36.42;;;;;;;;;;5071433;28;20043;-75
2021/12/29 14:28:56;;;;;;;27.15;19.77;;;;;;;;;;5073076;28;20024;-78
2021/12/29 14:31:25;;;;;;;27.13;20.00;;;;;;;;;;5072535;28;20028;-77
2021/12/29 14:33:52;;;;;;;26.40;18.65;;;;;;;;;;5072931;28;20068;-74
2021/12/29 14:36:28;;;;;;;22.20;16.73;;;;;;;;;;5072770;28;20024;-77